createdAt,value
2019-01-25T00:01:09.215Z,-2.00
2019-01-25T00:03:37.551Z,-2.00
2019-01-25T00:06:06.464Z,-2.00
2019-01-25T00:08:34.263Z,-2.00
2019-01-25T00:11:02.053Z,-2.00
2019-01-25T00:13:29.799Z,-2.10
2019-01-25T00:15:57.775Z,-2.20
2019-01-25T00:18:26.083Z,-2.10
2019-01-25T00:20:53.873Z,-2.10
2019-01-25T00:23:21.540Z,-2.10
2019-01-25T00:25:49.321Z,-2.10
2019-01-25T00:28:17.074Z,-2.10
2019-01-25T00:30:44.847Z,-2.00
2019-01-25T00:33:12.508Z,-2.00
2019-01-25T00:35:40.307Z,-2.00
2019-01-25T00:38:08.331Z,-2.00
2019-01-25T00:40:36.107Z,-2.00
2019-01-25T00:43:04.152Z,-1.90
2019-01-25T00:45:31.981Z,-2.00
2019-01-25T00:48:00.050Z,-2.00
2019-01-25T00:50:27.851Z,-2.10
2019-01-25T00:52:55.610Z,-2.20
2019-01-25T00:55:23.393Z,-2.30
2019-01-25T00:57:51.161Z,-2.30
2019-01-25T01:00:21.914Z,-2.30
2019-01-25T01:02:50.049Z,-2.40
2019-01-25T01:05:18.968Z,-2.30
2019-01-25T01:07:47.879Z,-2.30
2019-01-25T01:10:15.785Z,-2.30
2019-01-25T01:12:43.734Z,-2.20
2019-01-25T01:15:11.882Z,-2.20
2019-01-25T01:17:39.648Z,-2.30
2019-01-25T01:20:11.175Z,-2.20
2019-01-25T01:22:39.584Z,-2.20
2019-01-25T01:25:09.916Z,-2.30
2019-01-25T01:27:37.677Z,-2.30
2019-01-25T01:30:08.600Z,-2.30
2019-01-25T01:32:36.636Z,-2.30
2019-01-25T01:35:06.199Z,-2.20
2019-01-25T01:37:34.248Z,-2.20
2019-01-25T01:40:03.603Z,-2.20
2019-01-25T01:42:31.674Z,-2.20
2019-01-25T01:44:59.483Z,-2.30
2019-01-25T01:47:27.305Z,-2.20
2019-01-25T01:49:55.144Z,-2.20
2019-01-25T01:52:22.799Z,-2.10
2019-01-25T01:54:50.766Z,-2.10
2019-01-25T01:57:18.529Z,-2.10
2019-01-25T01:59:46.368Z,-2.10
2019-01-25T02:02:14.348Z,-2.00
2019-01-25T02:04:42.143Z,-2.00
2019-01-25T02:07:09.891Z,-2.00
2019-01-25T02:09:37.549Z,-2.00
2019-01-25T02:12:05.329Z,-1.90
2019-01-25T02:14:33.359Z,-2.00
2019-01-25T02:17:01.383Z,-2.00
2019-01-25T02:19:29.119Z,-2.00
2019-01-25T02:21:57.177Z,-2.00
2019-01-25T02:24:24.927Z,-2.00
2019-01-25T02:26:52.780Z,-2.00
2019-01-25T02:29:20.528Z,-2.00
2019-01-25T02:31:48.487Z,-2.00
2019-01-25T02:34:16.295Z,-2.00
2019-01-25T02:36:44.066Z,-2.00
2019-01-25T02:39:11.815Z,-2.00
2019-01-25T02:41:39.763Z,-2.00
2019-01-25T02:44:07.771Z,-2.00
2019-01-25T02:46:35.473Z,-2.00
2019-01-25T02:49:03.746Z,-2.00
2019-01-25T02:51:31.743Z,-2.00
2019-01-25T02:53:59.761Z,-2.00
2019-01-25T02:56:27.440Z,-2.00
2019-01-25T02:58:55.024Z,-2.00
2019-01-25T03:01:22.693Z,-2.00
2019-01-25T03:03:50.347Z,-2.00
2019-01-25T03:06:18.133Z,-2.00
2019-01-25T03:08:46.748Z,-2.00
2019-01-25T03:11:14.461Z,-2.00
2019-01-25T03:13:42.044Z,-2.00
2019-01-25T03:16:10.106Z,-2.00
2019-01-25T03:18:38.019Z,-2.00
2019-01-25T03:21:05.801Z,-2.00
2019-01-25T03:23:33.557Z,-2.10
2019-01-25T03:26:01.489Z,-2.10
2019-01-25T03:28:29.577Z,-2.10
2019-01-25T03:30:57.342Z,-2.10
2019-01-25T03:33:25.036Z,-2.10
2019-01-25T03:35:52.778Z,-2.10
2019-01-25T03:38:20.526Z,-2.10
2019-01-25T03:40:54.987Z,-2.10
2019-01-25T03:43:17.855Z,-2.10
2019-01-25T03:45:45.642Z,-2.10
2019-01-25T03:48:13.540Z,-2.10
2019-01-25T03:50:41.309Z,-2.10
2019-01-25T03:53:08.894Z,-2.10
2019-01-25T03:55:36.632Z,-2.10
2019-01-25T03:58:04.793Z,-2.10
2019-01-25T04:00:32.570Z,-2.10
2019-01-25T04:03:00.531Z,-2.10
2019-01-25T04:05:28.380Z,-2.10
2019-01-25T04:07:56.405Z,-2.10
2019-01-25T04:10:26.417Z,-2.10
2019-01-25T04:12:55.230Z,-2.10
2019-01-25T04:15:29.249Z,-2.10
2019-01-25T04:17:57.053Z,-2.10
2019-01-25T04:20:24.906Z,-2.10
2019-01-25T04:22:53.024Z,-2.10
2019-01-25T04:25:21.511Z,-2.10
2019-01-25T04:27:49.457Z,-2.10
2019-01-25T04:30:29.042Z,-2.10
2019-01-25T04:32:56.937Z,-2.10
2019-01-25T04:35:24.679Z,-2.10
2019-01-25T04:37:52.765Z,-2.10
2019-01-25T04:40:21.223Z,-2.10
2019-01-25T04:42:49.529Z,-2.10
2019-01-25T04:45:18.446Z,-2.10
2019-01-25T04:47:46.323Z,-2.00
2019-01-25T04:50:19.553Z,-2.10
2019-01-25T04:52:47.338Z,-2.10
2019-01-25T04:55:24.333Z,-2.10
2019-01-25T04:57:52.265Z,-2.10
2019-01-25T05:00:21.016Z,-2.10
2019-01-25T05:02:58.469Z,-2.10
2019-01-25T05:05:26.710Z,-2.00
2019-01-25T05:08:05.376Z,-2.10
2019-01-25T05:10:33.115Z,-2.10
2019-01-25T05:13:01.167Z,-2.00
2019-01-25T05:15:28.934Z,-2.10
2019-01-25T05:17:56.737Z,-2.10
2019-01-25T05:20:24.764Z,-2.00
2019-01-25T05:22:57.482Z,-2.10
2019-01-25T05:25:26.285Z,-2.00
2019-01-25T05:27:54.418Z,-2.00
2019-01-25T05:30:22.350Z,-2.00
2019-01-25T05:32:50.129Z,-2.00
2019-01-25T05:35:17.876Z,-2.00
2019-01-25T05:37:45.663Z,-2.10
2019-01-25T05:40:22.260Z,-2.10
2019-01-25T05:42:50.044Z,-2.10
2019-01-25T05:45:17.780Z,-2.00
2019-01-25T05:47:45.555Z,-2.00
2019-01-25T05:50:13.762Z,-2.00
2019-01-25T05:52:41.581Z,-2.00
2019-01-25T05:55:14.945Z,-2.00
2019-01-25T05:57:42.905Z,-2.10
2019-01-25T06:00:11.293Z,-2.00
2019-01-25T06:02:39.387Z,-2.00
2019-01-25T06:05:07.429Z,-2.00
2019-01-25T06:07:35.193Z,-2.00
2019-01-25T06:10:04.289Z,-2.00
2019-01-25T06:12:32.039Z,-2.00
2019-01-25T06:14:59.844Z,-2.00
2019-01-25T06:17:27.752Z,-2.00
2019-01-25T06:19:55.529Z,-2.00
2019-01-25T06:22:23.284Z,-2.00
2019-01-25T06:24:51.066Z,-2.10
2019-01-25T06:27:18.848Z,-2.10
2019-01-25T06:29:46.918Z,-2.20
2019-01-25T06:32:14.952Z,-2.10
2019-01-25T06:34:42.908Z,-2.10
2019-01-25T06:37:10.686Z,-2.10
2019-01-25T06:39:38.269Z,-2.10
2019-01-25T06:42:06.028Z,-2.10
2019-01-25T06:44:33.712Z,-2.00
2019-01-25T06:47:01.416Z,-2.00
2019-01-25T06:49:29.556Z,-2.00
2019-01-25T06:51:57.298Z,-2.10
2019-01-25T06:54:25.296Z,-2.10
2019-01-25T06:56:52.904Z,-2.00
2019-01-25T06:59:23.929Z,-2.00
2019-01-25T07:02:17.547Z,-2.00
2019-01-25T07:04:45.219Z,-2.00
2019-01-25T07:07:22.129Z,-2.00
2019-01-25T07:09:49.927Z,-2.00
2019-01-25T07:12:18.076Z,-1.90
2019-01-25T07:14:45.556Z,-2.00
2019-01-25T07:17:13.209Z,-1.90
2019-01-25T07:19:40.890Z,-1.90
2019-01-25T07:22:08.648Z,-1.90
2019-01-25T07:24:36.437Z,-1.90
2019-01-25T07:27:04.240Z,-1.90
2019-01-25T07:29:31.929Z,-1.90
2019-01-25T07:31:59.820Z,-2.00
2019-01-25T07:34:27.753Z,-2.10
2019-01-25T07:36:55.645Z,-2.10
2019-01-25T07:39:26.974Z,-2.10
2019-01-25T07:41:59.639Z,-2.00
2019-01-25T07:44:25.605Z,-2.00
2019-01-25T07:46:53.491Z,-2.00
2019-01-25T07:49:21.264Z,-2.00
2019-01-25T07:51:49.318Z,-2.00
2019-01-25T07:54:17.087Z,-2.00
2019-01-25T07:56:44.875Z,-2.00
2019-01-25T07:59:12.700Z,-2.00
2019-01-25T08:01:40.815Z,-2.10
2019-01-25T08:04:08.695Z,-2.20
2019-01-25T08:06:36.705Z,-2.20
2019-01-25T08:09:08.141Z,-2.20
2019-01-25T08:11:35.833Z,-2.30
2019-01-25T08:14:04.756Z,-2.20
2019-01-25T08:16:32.581Z,-2.10
2019-01-25T08:19:00.216Z,-2.20
2019-01-25T08:21:28.000Z,-2.20
2019-01-25T08:23:56.020Z,-2.20
2019-01-25T08:26:24.056Z,-2.30
2019-01-25T08:28:52.105Z,-2.30
2019-01-25T08:31:20.406Z,-2.30
2019-01-25T08:33:48.374Z,-2.40
2019-01-25T08:36:16.320Z,-2.40
2019-01-25T08:38:44.109Z,-2.40
2019-01-25T08:41:11.818Z,-2.30
2019-01-25T08:43:39.467Z,-2.30
2019-01-25T08:46:07.277Z,-2.20
2019-01-25T08:48:35.049Z,-2.20
2019-01-25T08:51:03.090Z,-2.20
2019-01-25T08:53:31.125Z,-2.20
2019-01-25T08:55:59.227Z,-2.20
2019-01-25T08:58:27.010Z,-2.20
2019-01-25T09:00:54.764Z,-2.20
2019-01-25T09:03:22.444Z,-2.20
2019-01-25T09:05:50.517Z,-2.20
2019-01-25T09:08:18.540Z,-2.10
2019-01-25T09:10:46.398Z,-2.00
2019-01-25T09:13:14.271Z,-2.00
2019-01-25T09:15:42.232Z,-2.00
2019-01-25T09:18:10.120Z,-2.10
2019-01-25T09:20:38.170Z,-2.20
2019-01-25T09:23:05.926Z,-2.10
2019-01-25T09:25:34.264Z,-2.00
2019-01-25T09:28:02.044Z,-2.10
2019-01-25T09:30:29.807Z,-2.10
2019-01-25T09:32:57.679Z,-2.10
2019-01-25T09:35:25.431Z,-2.00
2019-01-25T09:37:53.617Z,-2.00
2019-01-25T09:40:22.744Z,-2.00
2019-01-25T09:42:51.190Z,-1.90
2019-01-25T09:45:19.424Z,-2.00
2019-01-25T09:47:47.349Z,-2.00
2019-01-25T09:50:17.345Z,-1.90
2019-01-25T09:52:45.029Z,-1.90
2019-01-25T09:55:18.727Z,-2.00
2019-01-25T09:57:47.054Z,-2.00
2019-01-25T10:00:23.697Z,-1.90
2019-01-25T10:02:51.478Z,-2.00
2019-01-25T10:05:19.273Z,-1.90
2019-01-25T10:07:47.080Z,-1.90
2019-01-25T10:10:14.867Z,-1.90
2019-01-25T10:12:43.445Z,-1.80
2019-01-25T10:15:15.665Z,-1.90
2019-01-25T10:17:43.343Z,-1.80
2019-01-25T10:20:11.220Z,-1.80
2019-01-25T10:22:39.180Z,-1.70
2019-01-25T10:25:08.258Z,-1.70
2019-01-25T10:27:36.044Z,-1.70
2019-01-25T10:30:07.385Z,-1.70
2019-01-25T10:32:35.539Z,-1.70
2019-01-25T10:35:05.271Z,-1.70
2019-01-25T10:37:33.061Z,-1.60
2019-01-25T10:40:00.519Z,-1.60
2019-01-25T10:42:28.577Z,-1.70
2019-01-25T10:44:56.275Z,-1.60
2019-01-25T10:47:25.752Z,-1.70
2019-01-25T10:49:53.309Z,-1.60
2019-01-25T10:52:21.145Z,-1.60
2019-01-25T10:54:49.071Z,-1.50
2019-01-25T10:57:16.856Z,-1.50
2019-01-25T10:59:44.632Z,-1.60
2019-01-25T11:02:12.685Z,-1.60
2019-01-25T11:04:40.342Z,-1.60
2019-01-25T11:07:07.960Z,-1.50
2019-01-25T11:09:38.114Z,-1.50
2019-01-25T11:12:05.550Z,-1.50
2019-01-25T11:14:33.306Z,-1.50
2019-01-25T11:17:01.100Z,-1.60
2019-01-25T11:19:28.852Z,-1.60
2019-01-25T11:21:56.442Z,-1.50
2019-01-25T11:24:24.128Z,-1.60
2019-01-25T11:26:52.029Z,-1.60
2019-01-25T11:29:19.913Z,-1.60
2019-01-25T11:31:47.839Z,-1.70
2019-01-25T11:34:15.413Z,-1.60
2019-01-25T11:36:43.719Z,-1.60
2019-01-25T11:39:11.888Z,-1.70
2019-01-25T11:41:39.838Z,-1.70
2019-01-25T11:44:07.537Z,-1.70
2019-01-25T11:46:35.198Z,-1.60
2019-01-25T11:49:03.185Z,-1.80
2019-01-25T11:51:31.936Z,-1.80
2019-01-25T11:53:59.632Z,-1.70
2019-01-25T11:56:27.389Z,-1.70
2019-01-25T11:58:55.495Z,-1.80
2019-01-25T12:01:23.540Z,-1.80
2019-01-25T12:03:51.791Z,-1.90
2019-01-25T12:06:19.647Z,-1.80
2019-01-25T12:08:47.712Z,-1.70
2019-01-25T12:11:15.390Z,-1.80
2019-01-25T12:13:42.996Z,-1.80
2019-01-25T12:16:11.764Z,-1.80
2019-01-25T12:18:39.491Z,-1.80
2019-01-25T12:21:07.240Z,-1.80
2019-01-25T12:23:35.036Z,-1.70
2019-01-25T12:26:02.822Z,-1.80
2019-01-25T12:28:30.911Z,-1.90
2019-01-25T12:30:58.843Z,-1.90
2019-01-25T12:33:26.448Z,-1.90
2019-01-25T12:35:54.198Z,-1.80
2019-01-25T12:38:21.968Z,-1.90
2019-01-25T12:40:49.741Z,-2.00
2019-01-25T12:43:23.871Z,-2.00
2019-01-25T12:45:50.169Z,-2.10
2019-01-25T12:48:16.859Z,-2.10
2019-01-25T12:51:03.279Z,-2.20
2019-01-25T12:53:32.131Z,-2.30
2019-01-25T12:55:59.875Z,-2.30
2019-01-25T12:58:27.732Z,-2.20
2019-01-25T13:00:55.490Z,-2.10
2019-01-25T13:03:23.355Z,-2.10
2019-01-25T13:05:51.640Z,-2.10
2019-01-25T13:08:19.372Z,-2.10
2019-01-25T13:10:47.126Z,-2.20
2019-01-25T13:13:14.933Z,-2.20
2019-01-25T13:15:42.692Z,-2.30
2019-01-25T13:18:10.513Z,-2.30
2019-01-25T13:20:39.613Z,-2.40
2019-01-25T13:23:07.433Z,-2.40
2019-01-25T13:25:35.235Z,-2.30
2019-01-25T13:28:03.084Z,-2.50
2019-01-25T13:30:30.972Z,-2.50
2019-01-25T13:32:59.726Z,-2.50
2019-01-25T13:35:27.822Z,-2.50
2019-01-25T13:37:55.583Z,-2.60
2019-01-25T13:40:23.788Z,-2.60
2019-01-25T13:42:52.018Z,-2.60
2019-01-25T13:45:21.787Z,-2.60
2019-01-25T13:47:49.765Z,-2.50
2019-01-25T13:50:20.668Z,-2.60
2019-01-25T13:52:48.338Z,-2.60
2019-01-25T13:55:17.080Z,-2.60
2019-01-25T13:57:44.954Z,-2.60
2019-01-25T14:00:22.970Z,-2.70
2019-01-25T14:02:51.998Z,-2.70
2019-01-25T14:05:19.929Z,-2.80
2019-01-25T14:07:47.785Z,-2.80
2019-01-25T14:10:20.103Z,-2.80
2019-01-25T14:12:48.135Z,-2.80
2019-01-25T14:15:15.967Z,-2.80
2019-01-25T14:17:43.769Z,-2.90
2019-01-25T14:20:22.948Z,-2.80
2019-01-25T14:22:44.972Z,-2.80
2019-01-25T14:25:12.956Z,-2.80
2019-01-25T14:27:40.736Z,-2.80
2019-01-25T14:30:17.693Z,-2.80
2019-01-25T14:32:45.453Z,-2.80
2019-01-25T14:35:13.160Z,-2.80
2019-01-25T14:37:41.225Z,-2.90
2019-01-25T14:40:09.269Z,-2.90
2019-01-25T14:42:36.939Z,-2.90
2019-01-25T14:45:05.513Z,-2.90
2019-01-25T14:47:33.512Z,-2.90
2019-01-25T14:50:01.580Z,-3.00
2019-01-25T14:52:29.709Z,-2.90
2019-01-25T14:54:57.429Z,-2.80
2019-01-25T14:57:25.260Z,-2.80
2019-01-25T14:59:52.924Z,-2.70
2019-01-25T15:02:20.953Z,-2.70
2019-01-25T15:04:48.776Z,-2.70
2019-01-25T15:07:16.480Z,-2.70
2019-01-25T15:09:44.088Z,-2.70
2019-01-25T15:12:11.862Z,-2.70
2019-01-25T15:14:39.572Z,-2.70
2019-01-25T15:17:07.360Z,-2.70
2019-01-25T15:19:35.148Z,-2.70
2019-01-25T15:22:02.896Z,-2.70
2019-01-25T15:24:30.620Z,-2.70
2019-01-25T15:26:58.448Z,-2.70
2019-01-25T15:29:27.157Z,-2.70
2019-01-25T15:31:55.804Z,-2.70
2019-01-25T15:34:24.595Z,-2.70
2019-01-25T15:36:52.167Z,-2.70
2019-01-25T15:39:19.969Z,-2.60
2019-01-25T15:41:47.716Z,-2.60
2019-01-25T15:44:15.178Z,-2.60
2019-01-25T15:46:42.914Z,-2.60
2019-01-25T15:49:10.672Z,-2.70
2019-01-25T15:51:38.544Z,-2.70
2019-01-25T15:54:06.204Z,-2.70
2019-01-25T15:56:34.565Z,-2.70
2019-01-25T15:59:03.611Z,-2.70
2019-01-25T16:01:31.849Z,-2.70
2019-01-25T16:04:00.011Z,-2.70
2019-01-25T16:06:27.615Z,-2.70
2019-01-25T16:08:55.639Z,-2.70
2019-01-25T16:11:23.430Z,-2.70
2019-01-25T16:13:51.328Z,-2.70
2019-01-25T16:16:19.079Z,-2.70
2019-01-25T16:18:47.007Z,-2.80
2019-01-25T16:21:15.087Z,-2.70
2019-01-25T16:23:42.857Z,-2.70
2019-01-25T16:26:10.661Z,-2.70
2019-01-25T16:28:38.333Z,-2.70
2019-01-25T16:31:06.171Z,-2.70
2019-01-25T16:33:33.949Z,-2.70
2019-01-25T16:36:01.736Z,-2.80
2019-01-25T16:38:29.507Z,-2.80
2019-01-25T16:40:57.288Z,-2.80
2019-01-25T16:43:24.973Z,-2.80
2019-01-25T16:45:53.320Z,-2.80
2019-01-25T16:48:21.048Z,-2.80
2019-01-25T16:50:48.952Z,-2.80
2019-01-25T16:53:16.696Z,-2.80
2019-01-25T16:55:44.817Z,-2.80
2019-01-25T16:58:15.333Z,-2.80
2019-01-25T17:00:47.614Z,-2.80
2019-01-25T17:03:15.877Z,-2.90
2019-01-25T17:05:43.664Z,-2.90
2019-01-25T17:08:11.748Z,-2.90
2019-01-25T17:10:41.107Z,-2.90
2019-01-25T17:13:09.056Z,-3.00
2019-01-25T17:15:36.903Z,-3.00
2019-01-25T17:18:05.482Z,-3.00
2019-01-25T17:23:32.545Z,-3.00
2019-01-25T17:26:03.791Z,-3.10
2019-01-25T17:28:34.968Z,-3.10
2019-01-25T17:31:06.233Z,-3.10
2019-01-25T17:33:37.415Z,-3.20
2019-01-25T17:36:08.984Z,-3.20
2019-01-25T17:38:40.226Z,-3.20
2019-01-25T17:41:11.812Z,-3.20
2019-01-25T17:43:43.061Z,-3.20
2019-01-25T17:46:14.435Z,-3.20
2019-01-25T17:48:45.689Z,-3.20
2019-01-25T17:51:17.083Z,-3.30
2019-01-25T17:53:48.736Z,-3.30
2019-01-25T17:56:21.112Z,-3.30
2019-01-25T17:58:52.287Z,-3.30
2019-01-25T18:01:24.008Z,-3.30
2019-01-25T18:03:55.275Z,-3.20
2019-01-25T18:06:26.612Z,-3.30
2019-01-25T18:08:57.866Z,-3.30
2019-01-25T18:11:29.388Z,-3.30
2019-01-25T18:14:00.687Z,-3.30
2019-01-25T18:16:31.972Z,-3.30
2019-01-25T18:19:03.436Z,-3.20
2019-01-25T18:21:35.084Z,-3.20
2019-01-25T18:24:06.509Z,-3.20
2019-01-25T18:26:38.200Z,-3.20
2019-01-25T18:29:58.243Z,-3.20
2019-01-25T18:32:29.644Z,-3.10
2019-01-25T18:35:01.177Z,-3.10
2019-01-25T18:37:33.798Z,-3.20
2019-01-25T18:40:08.854Z,-3.10
2019-01-25T18:42:40.107Z,-3.20
2019-01-25T18:45:11.369Z,-3.10
2019-01-25T18:47:43.068Z,-3.10
2019-01-25T18:50:15.211Z,-3.10
2019-01-25T18:52:49.743Z,-3.10
2019-01-25T18:55:22.502Z,-3.00
2019-01-25T18:57:54.160Z,-3.00
2019-01-25T19:00:26.090Z,-3.10
2019-01-25T19:02:57.612Z,-3.10
2019-01-25T19:05:29.258Z,-3.10
2019-01-25T19:08:00.933Z,-3.00
2019-01-25T19:10:32.466Z,-3.00
2019-01-25T19:13:03.748Z,-3.00
2019-01-25T19:15:35.039Z,-3.00
2019-01-25T19:18:06.359Z,-2.90
2019-01-25T19:20:37.935Z,-2.90
2019-01-25T19:23:09.311Z,-3.00
2019-01-25T19:25:40.573Z,-2.90
2019-01-25T19:28:12.282Z,-2.90
2019-01-25T19:30:45.769Z,-2.90
2019-01-25T19:33:17.532Z,-2.90
2019-01-25T19:35:48.776Z,-2.90
2019-01-25T19:38:22.532Z,-2.80
2019-01-25T19:40:53.894Z,-2.80
2019-01-25T19:43:25.408Z,-2.90
2019-01-25T19:45:57.393Z,-2.80
2019-01-25T19:48:29.413Z,-2.80
2019-01-25T19:51:01.482Z,-2.80
2019-01-25T19:53:33.143Z,-2.80
2019-01-25T19:56:05.185Z,-2.80
2019-01-25T19:58:36.651Z,-2.80
2019-01-25T20:01:07.901Z,-2.70
2019-01-25T20:03:39.452Z,-2.70
2019-01-25T20:06:10.646Z,-2.70
2019-01-25T20:08:43.286Z,-2.70
2019-01-25T20:11:14.657Z,-2.60
2019-01-25T20:13:46.376Z,-2.60
2019-01-25T20:16:18.024Z,-2.60
2019-01-25T20:18:50.260Z,-2.60
2019-01-25T20:21:21.846Z,-2.60
2019-01-25T20:23:53.003Z,-2.60
2019-01-25T20:26:24.389Z,-2.50
2019-01-25T20:28:55.617Z,-2.50
2019-01-25T20:31:27.441Z,-2.50
2019-01-25T20:33:59.101Z,-2.50
2019-01-25T20:36:30.460Z,-2.40
2019-01-25T20:39:02.402Z,-2.40
2019-01-25T20:41:35.570Z,-2.40
2019-01-25T20:44:07.149Z,-2.40
2019-01-25T20:46:39.318Z,-2.30
2019-01-25T20:49:10.959Z,-2.30
2019-01-25T20:51:45.154Z,-2.30
2019-01-25T20:54:16.722Z,-2.20
2019-01-25T20:56:47.911Z,-2.20
2019-01-25T20:59:19.067Z,-2.20
2019-01-25T21:01:50.204Z,-2.20
2019-01-25T21:04:21.422Z,-2.20
2019-01-25T21:06:52.964Z,-2.20
2019-01-25T21:09:24.249Z,-2.10
2019-01-25T21:11:55.360Z,-2.10
2019-01-25T21:14:27.837Z,-2.10
2019-01-25T21:16:59.271Z,-2.10
2019-01-25T21:19:30.762Z,-2.00
2019-01-25T21:22:02.092Z,-2.00
2019-01-25T21:24:33.303Z,-2.00
2019-01-25T21:27:04.987Z,-2.00
2019-01-25T21:29:36.513Z,-1.90
2019-01-25T21:32:07.762Z,-1.90
2019-01-25T21:34:38.984Z,-1.90
2019-01-25T21:37:10.275Z,-1.80
2019-01-25T21:39:42.126Z,-1.90
2019-01-25T21:42:13.308Z,-1.80
2019-01-25T21:44:45.012Z,-1.80
2019-01-25T21:47:16.256Z,-1.80
2019-01-25T21:49:47.468Z,-1.70
2019-01-25T21:52:18.737Z,-1.70
2019-01-25T21:54:50.311Z,-1.70
2019-01-25T21:57:21.560Z,-1.60
2019-01-25T21:59:53.111Z,-1.60
2019-01-25T22:02:24.365Z,-1.60
2019-01-25T22:04:56.327Z,-1.60
2019-01-25T22:07:27.515Z,-1.60
2019-01-25T22:09:59.024Z,-1.60
2019-01-25T22:12:30.573Z,-1.50
2019-01-25T22:15:02.277Z,-1.50
2019-01-25T22:17:33.534Z,-1.50
2019-01-25T22:20:07.993Z,-1.50
2019-01-25T22:22:39.260Z,-1.50
2019-01-25T22:25:11.200Z,-1.50
2019-01-25T22:27:42.859Z,-1.40
2019-01-25T22:30:18.714Z,-1.30
2019-01-25T22:32:49.903Z,-1.30
2019-01-25T22:35:21.574Z,-1.30
2019-01-25T22:37:53.320Z,-1.30
2019-01-25T22:40:30.392Z,-1.20
2019-01-25T22:43:01.679Z,-1.20
2019-01-25T22:45:33.839Z,-1.20
2019-01-25T22:48:06.349Z,-1.20
2019-01-25T22:50:38.929Z,-1.20
2019-01-25T22:53:10.372Z,-1.20
2019-01-25T22:55:41.671Z,-1.20
2019-01-25T22:58:12.904Z,-1.20
2019-01-25T23:01:22.670Z,-1.20
2019-01-25T23:04:24.255Z,-1.20
2019-01-25T23:07:07.982Z,-1.20
2019-01-25T23:09:53.068Z,-1.20
2019-01-25T23:12:24.320Z,-1.20
2019-01-25T23:14:55.876Z,-1.20
2019-01-25T23:17:27.159Z,-1.20
2019-01-25T23:19:58.483Z,-1.20
2019-01-25T23:22:31.567Z,-1.20
2019-01-25T23:25:03.972Z,-1.20
2019-01-25T23:27:35.155Z,-1.10
2019-01-25T23:30:12.173Z,-1.10
2019-01-25T23:32:43.792Z,-1.10
2019-01-25T23:35:15.448Z,-1.10
2019-01-25T23:37:46.624Z,-1.10
2019-01-25T23:40:17.941Z,-1.20
2019-01-25T23:42:49.118Z,-1.20
2019-01-25T23:45:20.332Z,-1.20
2019-01-25T23:47:51.609Z,-1.20
2019-01-25T23:50:24.316Z,-1.20
2019-01-25T23:52:55.510Z,-1.20
2019-01-25T23:55:27.733Z,-1.20
2019-01-25T23:57:59.419Z,-1.20
